Dawson, Canada
Current Conditions -  °F | °C
As of 4:00 PM on Friday 31 Oct 2014 (Local Time) from CYDA Reporting Station
Light Snow Light Snow  
Wind Chill: 19°   Ceiling: 3500
Heat Index: 19°   Visibility: 10mi
Dew Point: 14°   Wind: 2mph
Humidity: 80%   Direction: 100°E
Pressure: 29.43"   Gusts: NA
Location:  64.05°N, 139.13°W
Report Text: CYDA 312300Z 10002KT 10SM -SN FEW010 BKN035 OVC070 M07/M10 A2943 RMK SC1SC7AS1 SC TR CLIMAT -7.4/-8.9/1.8 CM/0.4 MWE LAST OBS/NXT SLP995
Loading
Personal Weather Stations






























Interactive Weather Map
Tropical Storm Tracking
New forecast layout! Learn more

10-Day Weather Forecast

Advertisements
Track Severe Weather on mobile